createdAt,value
2018-03-15T00:00:56.826Z,66.52
2018-03-15T00:02:03.545Z,66.56
2018-03-15T00:03:10.323Z,66.61
2018-03-15T00:04:17.100Z,66.60
2018-03-15T00:05:23.818Z,66.64
2018-03-15T00:06:30.527Z,66.71
2018-03-15T00:07:37.229Z,66.83
2018-03-15T00:08:44.016Z,66.83
2018-03-15T00:09:50.720Z,66.86
2018-03-15T00:10:57.425Z,66.94
2018-03-15T00:12:04.148Z,67.00
2018-03-15T00:13:10.820Z,67.03
2018-03-15T00:14:17.530Z,67.10
2018-03-15T00:15:24.212Z,67.07
2018-03-15T00:16:31.004Z,67.17
2018-03-15T00:17:37.733Z,67.24
2018-03-15T00:18:44.444Z,67.23
2018-03-15T00:19:51.182Z,67.22
2018-03-15T00:20:57.916Z,67.23
2018-03-15T00:22:04.672Z,67.26
2018-03-15T00:23:11.582Z,67.25
2018-03-15T00:24:18.285Z,67.28
2018-03-15T00:25:25.019Z,67.32
2018-03-15T00:26:31.764Z,67.34
2018-03-15T00:27:38.460Z,67.40
2018-03-15T00:28:45.207Z,67.49
2018-03-15T00:29:51.922Z,67.56
2018-03-15T00:30:58.636Z,67.53
2018-03-15T00:32:05.452Z,67.53
2018-03-15T00:33:12.181Z,67.61
2018-03-15T00:34:18.940Z,67.65
2018-03-15T00:35:25.645Z,67.79
2018-03-15T00:36:32.384Z,67.77
2018-03-15T00:37:39.130Z,67.75
2018-03-15T00:38:45.836Z,67.85
2018-03-15T00:39:52.552Z,67.89
2018-03-15T00:40:59.281Z,67.93
2018-03-15T00:42:06.023Z,67.93
2018-03-15T00:43:12.813Z,67.97
2018-03-15T00:44:19.510Z,67.98
2018-03-15T00:45:26.235Z,68.00
2018-03-15T00:46:32.952Z,68.10
2018-03-15T00:47:39.685Z,68.21
2018-03-15T00:48:46.501Z,68.21
2018-03-15T00:49:53.277Z,68.27
2018-03-15T00:51:00.014Z,68.30
2018-03-15T00:52:06.720Z,68.36
2018-03-15T00:53:13.436Z,68.38
2018-03-15T00:54:20.260Z,68.40
2018-03-15T00:55:26.970Z,68.45
2018-03-15T00:56:33.787Z,68.50
2018-03-15T00:57:40.494Z,68.53
2018-03-15T00:58:47.274Z,68.54
2018-03-15T00:59:54.012Z,68.61
2018-03-15T01:01:00.731Z,68.69
2018-03-15T01:02:07.668Z,68.65
2018-03-15T01:03:14.567Z,68.68
2018-03-15T01:04:21.438Z,68.70
2018-03-15T01:05:28.225Z,68.67
2018-03-15T01:06:34.960Z,68.76
2018-03-15T01:07:41.675Z,68.72
2018-03-15T01:08:48.490Z,68.72
2018-03-15T01:09:55.216Z,68.76
2018-03-15T01:11:01.925Z,68.79
2018-03-15T01:12:08.712Z,68.89
2018-03-15T01:13:15.524Z,68.89
2018-03-15T01:14:22.300Z,68.90
2018-03-15T01:15:29.032Z,68.91
2018-03-15T01:16:35.744Z,68.94
2018-03-15T01:17:42.532Z,69.03
2018-03-15T01:18:49.290Z,69.04
2018-03-15T01:19:56.024Z,69.09
2018-03-15T01:21:02.753Z,69.16
2018-03-15T01:22:09.446Z,69.22
2018-03-15T01:23:16.218Z,69.26
2018-03-15T01:24:22.948Z,69.28
2018-03-15T01:25:29.753Z,69.26
2018-03-15T01:26:36.493Z,69.32
2018-03-15T01:27:43.233Z,69.36
2018-03-15T01:28:49.917Z,69.37
2018-03-15T01:29:56.658Z,69.39
2018-03-15T01:31:03.361Z,69.47
2018-03-15T01:32:10.097Z,69.51
2018-03-15T01:33:16.816Z,69.52
2018-03-15T01:34:23.590Z,69.52
2018-03-15T01:35:30.337Z,69.53
2018-03-15T01:36:37.068Z,69.58
2018-03-15T01:37:43.765Z,69.66
2018-03-15T01:38:50.480Z,69.73
2018-03-15T01:39:57.280Z,69.78
2018-03-15T01:41:03.970Z,69.73
2018-03-15T01:42:10.689Z,69.70
2018-03-15T01:43:17.419Z,69.78
2018-03-15T01:44:24.125Z,69.80
2018-03-15T01:45:30.853Z,69.82
2018-03-15T01:46:37.613Z,69.84
2018-03-15T01:47:44.325Z,69.91
2018-03-15T01:48:51.062Z,69.95
2018-03-15T01:49:57.793Z,69.98
2018-03-15T01:51:04.525Z,70.03
2018-03-15T01:52:11.333Z,70.05
2018-03-15T01:53:18.041Z,70.10
2018-03-15T01:54:24.772Z,70.12
2018-03-15T01:55:31.509Z,70.14
2018-03-15T01:56:38.221Z,70.19
2018-03-15T01:57:45.041Z,70.22
2018-03-15T01:58:51.745Z,70.28
2018-03-15T01:59:58.608Z,70.30
2018-03-15T02:01:05.329Z,70.31
2018-03-15T02:02:12.106Z,70.31
2018-03-15T02:03:18.837Z,70.34
2018-03-15T02:04:25.599Z,70.36
2018-03-15T02:05:32.328Z,70.42
2018-03-15T02:06:39.031Z,70.45
2018-03-15T02:07:50.985Z,70.55
2018-03-15T02:08:52.700Z,70.63
2018-03-15T02:09:59.410Z,70.73
2018-03-15T02:11:06.232Z,70.79
2018-03-15T02:12:12.948Z,70.81
2018-03-15T02:13:19.640Z,70.82
2018-03-15T02:14:26.382Z,70.82
2018-03-15T02:15:33.109Z,70.91
2018-03-15T02:16:39.908Z,70.90
2018-03-15T02:17:46.644Z,70.93
2018-03-15T02:18:53.369Z,71.03
2018-03-15T02:20:00.092Z,71.08
2018-03-15T02:21:06.936Z,71.10
2018-03-15T02:22:13.669Z,71.14
2018-03-15T02:23:20.415Z,71.23
2018-03-15T02:24:27.225Z,71.29
2018-03-15T02:25:33.972Z,71.29
2018-03-15T02:26:40.700Z,71.33
2018-03-15T02:27:47.405Z,71.37
2018-03-15T02:28:54.134Z,71.46
2018-03-15T02:30:00.857Z,71.52
2018-03-15T02:31:07.704Z,71.56
2018-03-15T02:32:14.475Z,71.58
2018-03-15T02:33:21.237Z,71.63
2018-03-15T02:34:28.061Z,71.68
2018-03-15T02:35:34.762Z,71.74
2018-03-15T02:36:41.481Z,71.80
2018-03-15T02:37:48.234Z,71.81
2018-03-15T02:38:54.946Z,71.83
2018-03-15T02:40:01.780Z,71.85
2018-03-15T02:41:08.480Z,71.85
2018-03-15T02:42:15.205Z,71.86
2018-03-15T02:43:21.925Z,71.96
2018-03-15T02:44:28.634Z,72.01
2018-03-15T02:45:35.329Z,72.06
2018-03-15T02:46:42.121Z,72.17
2018-03-15T02:47:48.841Z,72.18
2018-03-15T02:48:55.566Z,72.22
2018-03-15T02:50:02.302Z,72.23
2018-03-15T02:51:09.031Z,72.28
2018-03-15T02:52:15.807Z,72.32
2018-03-15T02:53:22.697Z,72.39
2018-03-15T02:54:29.529Z,72.43
2018-03-15T02:55:36.246Z,72.47
2018-03-15T02:56:42.941Z,72.53
2018-03-15T02:57:49.700Z,72.59
2018-03-15T02:58:56.435Z,72.59
2018-03-15T03:00:03.161Z,72.63
2018-03-15T03:01:09.965Z,72.67
2018-03-15T03:02:16.692Z,72.70
2018-03-15T03:03:23.444Z,72.73
2018-03-15T03:04:30.174Z,72.76
2018-03-15T03:05:36.892Z,72.79
2018-03-15T03:06:43.617Z,72.85
2018-03-15T03:07:50.360Z,72.87
2018-03-15T03:08:57.068Z,72.92
2018-03-15T03:10:03.841Z,72.93
2018-03-15T03:11:10.540Z,72.97
2018-03-15T03:12:17.276Z,72.99
2018-03-15T03:13:24.020Z,73.02
2018-03-15T03:14:30.732Z,73.09
2018-03-15T03:15:37.521Z,73.09
2018-03-15T03:16:44.262Z,73.07
2018-03-15T03:17:51.000Z,73.12
2018-03-15T03:18:57.736Z,73.14
2018-03-15T03:20:04.556Z,73.15
2018-03-15T03:21:11.309Z,73.19
2018-03-15T03:22:18.096Z,73.23
2018-03-15T03:23:24.838Z,73.25
2018-03-15T03:24:31.596Z,73.33
2018-03-15T03:25:38.267Z,73.31
2018-03-15T03:26:44.988Z,73.32
2018-03-15T03:27:51.704Z,73.34
2018-03-15T03:28:58.456Z,73.37
2018-03-15T03:30:05.253Z,73.43
2018-03-15T03:31:11.968Z,73.44
2018-03-15T03:32:18.714Z,73.44
2018-03-15T03:33:25.500Z,73.50
2018-03-15T03:34:32.204Z,73.52
2018-03-15T03:35:39.000Z,73.52
2018-03-15T03:36:45.704Z,73.55
2018-03-15T03:37:52.440Z,73.56
2018-03-15T03:38:59.168Z,73.62
2018-03-15T03:40:05.882Z,73.67
2018-03-15T03:41:12.732Z,73.69
2018-03-15T03:42:19.471Z,73.71
2018-03-15T03:43:26.219Z,73.74
2018-03-15T03:44:32.952Z,73.77
2018-03-15T03:45:39.784Z,73.78
2018-03-15T03:46:46.509Z,73.80
2018-03-15T03:47:53.321Z,73.80
2018-03-15T03:49:00.062Z,73.84
2018-03-15T03:50:06.944Z,73.89
2018-03-15T03:51:13.661Z,73.91
2018-03-15T03:52:20.393Z,73.94
2018-03-15T03:53:27.130Z,73.94
2018-03-15T03:54:33.935Z,73.97
2018-03-15T03:55:40.673Z,74.00
2018-03-15T03:56:47.475Z,74.01
2018-03-15T03:57:54.287Z,74.03
2018-03-15T03:59:01.028Z,74.09
2018-03-15T04:00:07.780Z,74.09
2018-03-15T04:01:14.525Z,74.13
2018-03-15T04:02:21.324Z,74.19
2018-03-15T04:03:28.099Z,74.19
2018-03-15T04:04:34.846Z,74.20
2018-03-15T04:05:41.922Z,74.19
2018-03-15T04:06:48.661Z,74.24
2018-03-15T04:07:55.384Z,74.27
2018-03-15T04:09:02.100Z,74.30
2018-03-15T04:10:09.142Z,74.34
2018-03-15T04:11:15.884Z,74.36
2018-03-15T04:12:22.632Z,74.42
2018-03-15T04:13:29.404Z,74.40
2018-03-15T04:14:36.112Z,74.39
2018-03-15T04:15:42.827Z,74.43
2018-03-15T04:16:49.582Z,74.47
2018-03-15T04:17:56.289Z,74.47
2018-03-15T04:19:03.121Z,74.49
2018-03-15T04:20:09.916Z,74.50
2018-03-15T04:21:16.673Z,74.55
2018-03-15T04:22:23.408Z,74.59
2018-03-15T04:23:30.312Z,74.57
2018-03-15T04:24:37.068Z,74.58
2018-03-15T04:25:43.790Z,74.63
2018-03-15T04:26:50.504Z,74.63
2018-03-15T04:27:57.285Z,74.67
2018-03-15T04:29:04.026Z,74.69
2018-03-15T04:30:10.792Z,74.73
2018-03-15T04:31:17.525Z,74.75
2018-03-15T04:32:24.312Z,74.79
2018-03-15T04:33:31.120Z,74.78
2018-03-15T04:34:37.853Z,74.79
2018-03-15T04:35:44.587Z,74.80
2018-03-15T04:36:51.302Z,74.83
2018-03-15T04:37:58.086Z,74.82
2018-03-15T04:39:04.811Z,74.84
2018-03-15T04:40:11.667Z,74.90
2018-03-15T04:41:18.376Z,74.87
2018-03-15T04:42:25.172Z,74.85
2018-03-15T04:43:31.925Z,74.90
2018-03-15T04:44:38.661Z,74.91
2018-03-15T04:45:45.420Z,74.90
2018-03-15T04:46:52.264Z,74.86
2018-03-15T04:47:59.085Z,74.92
2018-03-15T04:49:05.905Z,74.96
2018-03-15T04:50:12.634Z,74.97
2018-03-15T04:51:19.372Z,74.99
2018-03-15T04:52:26.124Z,74.94
2018-03-15T04:53:32.853Z,75.00
2018-03-15T04:54:39.685Z,75.00
2018-03-15T04:55:46.432Z,74.97
2018-03-15T04:56:53.232Z,74.99
2018-03-15T04:57:59.993Z,74.98
2018-03-15T04:59:06.867Z,75.02
2018-03-15T05:00:13.605Z,74.98
2018-03-15T05:01:20.393Z,74.98
2018-03-15T05:02:27.216Z,75.02
2018-03-15T05:03:33.938Z,75.01
2018-03-15T05:04:40.696Z,74.93
2018-03-15T05:05:47.399Z,74.94
2018-03-15T05:06:54.153Z,74.96
2018-03-15T05:08:00.941Z,75.01
2018-03-15T05:09:07.734Z,75.05
2018-03-15T05:10:14.549Z,75.00
2018-03-15T05:11:21.397Z,75.02
2018-03-15T05:12:28.133Z,75.06
2018-03-15T05:13:34.881Z,75.04
2018-03-15T05:14:41.597Z,75.01
2018-03-15T05:15:48.337Z,74.98
2018-03-15T05:16:55.128Z,74.98
2018-03-15T05:18:01.838Z,75.00
2018-03-15T05:19:08.600Z,75.04
2018-03-15T05:20:15.337Z,75.04
2018-03-15T05:21:22.072Z,75.07
2018-03-15T05:22:28.871Z,75.07
2018-03-15T05:23:35.573Z,75.07
2018-03-15T05:24:42.313Z,75.07
2018-03-15T05:25:49.029Z,75.08
2018-03-15T05:26:55.766Z,75.10
2018-03-15T05:28:02.585Z,75.18
2018-03-15T05:29:09.293Z,75.17
2018-03-15T05:30:16.058Z,75.20
2018-03-15T05:31:22.797Z,75.25
2018-03-15T05:32:29.688Z,75.25
2018-03-15T05:33:36.386Z,75.21
2018-03-15T05:34:43.117Z,75.24
2018-03-15T05:35:49.881Z,75.26
2018-03-15T05:36:56.616Z,75.27
2018-03-15T05:38:03.410Z,75.28
2018-03-15T05:39:10.264Z,75.32
2018-03-15T05:40:16.982Z,75.33
2018-03-15T05:41:23.842Z,75.36
2018-03-15T05:42:30.616Z,75.37
2018-03-15T05:43:37.344Z,75.37
2018-03-15T05:44:44.089Z,75.43
2018-03-15T05:45:50.793Z,75.42
2018-03-15T05:46:57.590Z,75.43
2018-03-15T05:48:04.338Z,75.40
2018-03-15T05:49:11.084Z,75.42
2018-03-15T05:50:17.836Z,75.44
2018-03-15T05:51:24.606Z,75.41
2018-03-15T05:52:31.373Z,75.44
2018-03-15T05:53:38.128Z,75.47
2018-03-15T05:54:44.876Z,75.45
2018-03-15T05:55:51.593Z,75.47
2018-03-15T05:56:58.416Z,75.49
2018-03-15T05:58:05.174Z,75.49
2018-03-15T05:59:11.902Z,75.53
2018-03-15T06:00:18.593Z,75.47
2018-03-15T06:01:25.296Z,75.54
2018-03-15T06:02:32.013Z,75.55
2018-03-15T06:03:38.805Z,75.55
2018-03-15T06:04:45.529Z,75.56
2018-03-15T06:05:52.275Z,75.55
2018-03-15T06:06:59.004Z,75.55
2018-03-15T06:08:05.732Z,75.58
2018-03-15T06:09:12.511Z,75.58
2018-03-15T06:10:19.227Z,75.62
2018-03-15T06:11:25.948Z,75.66
2018-03-15T06:12:32.680Z,75.60
2018-03-15T06:13:39.448Z,75.61
2018-03-15T06:14:46.192Z,75.61
2018-03-15T06:15:52.946Z,75.66
2018-03-15T06:16:59.644Z,75.68
2018-03-15T06:18:06.423Z,75.68
2018-03-15T06:19:13.324Z,75.73
2018-03-15T06:20:20.096Z,75.73
2018-03-15T06:21:26.864Z,75.76
2018-03-15T06:22:33.604Z,75.78
2018-03-15T06:23:40.452Z,75.79
2018-03-15T06:24:47.221Z,75.82
2018-03-15T06:25:53.953Z,75.85
2018-03-15T06:27:00.797Z,75.88
2018-03-15T06:28:07.565Z,75.89
2018-03-15T06:29:14.312Z,75.86
2018-03-15T06:30:21.065Z,75.90
2018-03-15T06:31:27.888Z,75.91
2018-03-15T06:32:34.645Z,75.94
2018-03-15T06:33:41.445Z,75.94
2018-03-15T06:34:48.152Z,75.98
2018-03-15T06:35:55.048Z,76.02
2018-03-15T06:37:01.785Z,76.10
2018-03-15T06:38:08.533Z,76.17
2018-03-15T06:39:15.380Z,76.24
2018-03-15T06:40:22.111Z,76.29
2018-03-15T06:41:28.856Z,76.32
2018-03-15T06:42:35.585Z,76.32
2018-03-15T06:43:42.288Z,76.40
2018-03-15T06:44:49.088Z,76.49
2018-03-15T06:45:55.823Z,76.52
2018-03-15T06:47:02.577Z,76.53
2018-03-15T06:48:09.333Z,76.56
2018-03-15T06:49:16.103Z,76.64
2018-03-15T06:50:22.832Z,76.69
2018-03-15T06:51:29.562Z,76.68
2018-03-15T06:52:36.289Z,76.74
2018-03-15T06:53:43.145Z,76.78
2018-03-15T06:54:49.961Z,76.79
2018-03-15T06:55:56.674Z,76.84
2018-03-15T06:57:03.401Z,76.85
2018-03-15T06:58:10.291Z,76.87
2018-03-15T06:59:17.023Z,76.91
2018-03-15T07:00:23.794Z,76.98
2018-03-15T07:01:30.606Z,77.00
2018-03-15T07:02:37.340Z,77.01
2018-03-15T07:03:44.097Z,77.03
2018-03-15T07:04:50.842Z,77.07
2018-03-15T07:05:57.656Z,77.08
2018-03-15T07:07:04.409Z,77.09
2018-03-15T07:08:11.129Z,77.21
2018-03-15T07:09:17.866Z,77.26
2018-03-15T07:10:24.606Z,77.25
2018-03-15T07:11:31.335Z,77.20
2018-03-15T07:12:38.057Z,77.21
2018-03-15T07:13:44.749Z,77.30
2018-03-15T07:14:51.496Z,77.35
2018-03-15T07:15:58.304Z,77.37
2018-03-15T07:17:05.013Z,77.33
2018-03-15T07:18:11.792Z,77.38
2018-03-15T07:19:18.612Z,77.46
2018-03-15T07:20:25.324Z,77.52
2018-03-15T07:21:32.175Z,77.58
2018-03-15T07:22:38.888Z,77.50
2018-03-15T07:23:45.618Z,77.50
2018-03-15T07:24:52.337Z,77.53
2018-03-15T07:25:59.202Z,77.60
2018-03-15T07:27:05.989Z,77.65
2018-03-15T07:28:12.702Z,77.66
2018-03-15T07:29:19.517Z,77.71
2018-03-15T07:30:26.234Z,77.75
2018-03-15T07:31:32.997Z,77.74
2018-03-15T07:32:40.132Z,77.80
2018-03-15T07:33:46.865Z,77.87
2018-03-15T07:34:53.585Z,77.86
2018-03-15T07:36:00.357Z,77.81
2018-03-15T07:37:07.106Z,77.76
2018-03-15T07:38:13.840Z,77.81
2018-03-15T07:39:20.627Z,77.86
2018-03-15T07:40:27.302Z,77.91
2018-03-15T07:41:34.061Z,77.87
2018-03-15T07:42:40.796Z,77.89
2018-03-15T07:43:47.494Z,77.93
2018-03-15T07:44:54.229Z,77.88
2018-03-15T07:46:00.967Z,77.86
2018-03-15T07:47:07.789Z,77.89
2018-03-15T07:48:14.525Z,77.93
2018-03-15T07:49:21.244Z,77.95
2018-03-15T07:50:27.974Z,77.99
2018-03-15T07:51:34.656Z,77.97
2018-03-15T07:52:41.484Z,78.04
2018-03-15T07:53:48.204Z,78.08
2018-03-15T07:54:55.028Z,78.08
2018-03-15T07:56:01.751Z,78.09
2018-03-15T07:57:08.496Z,78.17
2018-03-15T07:58:15.234Z,78.19
2018-03-15T07:59:21.965Z,78.20
2018-03-15T08:00:28.664Z,78.18
2018-03-15T08:01:35.380Z,78.25
2018-03-15T08:02:42.129Z,78.33
2018-03-15T08:03:48.899Z,78.40
2018-03-15T08:04:55.670Z,78.46
2018-03-15T08:06:02.384Z,78.52
2018-03-15T08:07:09.125Z,78.54
2018-03-15T08:08:15.994Z,78.54
2018-03-15T08:09:22.729Z,78.53
2018-03-15T08:10:29.529Z,78.57
2018-03-15T08:11:36.225Z,78.66
2018-03-15T08:12:42.921Z,78.75
2018-03-15T08:13:49.712Z,78.77
2018-03-15T08:14:56.440Z,78.74
2018-03-15T08:16:03.172Z,78.84
2018-03-15T08:17:09.944Z,78.86
2018-03-15T08:18:16.802Z,78.85
2018-03-15T08:19:23.554Z,78.89
2018-03-15T08:20:30.267Z,78.89
2018-03-15T08:21:37.041Z,78.91
2018-03-15T08:22:43.748Z,78.97
2018-03-15T08:23:50.653Z,78.99
2018-03-15T08:24:57.393Z,78.99
2018-03-15T08:26:04.188Z,79.03
2018-03-15T08:27:10.955Z,78.97
2018-03-15T08:28:17.673Z,79.06
2018-03-15T08:29:24.398Z,79.07
2018-03-15T08:30:31.144Z,79.11
2018-03-15T08:31:37.866Z,79.11
2018-03-15T08:32:44.774Z,79.21
2018-03-15T08:33:51.534Z,79.28
2018-03-15T08:34:58.297Z,79.41
2018-03-15T08:36:05.159Z,79.45
2018-03-15T08:37:11.953Z,79.47
2018-03-15T08:38:18.765Z,79.48
2018-03-15T08:39:25.631Z,79.58
2018-03-15T08:40:32.552Z,79.60
2018-03-15T08:41:39.460Z,79.62
2018-03-15T08:42:46.162Z,79.69
2018-03-15T08:43:52.922Z,79.75
2018-03-15T08:44:59.740Z,79.69
2018-03-15T08:46:06.693Z,79.79
2018-03-15T08:47:13.481Z,79.92
2018-03-15T08:48:20.320Z,79.90
2018-03-15T08:49:27.033Z,79.97
2018-03-15T08:50:34.158Z,79.89
2018-03-15T08:51:40.958Z,79.90
2018-03-15T08:52:47.718Z,79.93
2018-03-15T08:53:54.576Z,79.92
2018-03-15T08:55:01.413Z,79.95
2018-03-15T08:56:08.149Z,80.06
2018-03-15T08:57:14.852Z,80.12
2018-03-15T08:58:21.671Z,80.10
2018-03-15T08:59:28.364Z,80.09
2018-03-15T09:00:35.145Z,80.12
2018-03-15T09:01:41.918Z,80.18
2018-03-15T09:02:48.745Z,80.18
2018-03-15T09:03:55.496Z,80.21
2018-03-15T09:05:02.210Z,80.21
2018-03-15T09:06:09.012Z,80.14
2018-03-15T09:07:15.789Z,80.12
2018-03-15T09:08:22.502Z,80.12
2018-03-15T09:09:29.284Z,80.13
2018-03-15T09:10:36.125Z,80.21
2018-03-15T09:11:42.897Z,80.23
2018-03-15T09:12:49.695Z,80.23
2018-03-15T09:13:56.441Z,80.29
2018-03-15T09:15:03.273Z,80.33
2018-03-15T09:16:10.025Z,80.33
2018-03-15T09:17:16.757Z,80.28
2018-03-15T09:18:23.512Z,80.35
2018-03-15T09:19:30.350Z,80.36
2018-03-15T09:20:37.061Z,80.36
2018-03-15T09:21:43.871Z,80.31
2018-03-15T09:22:50.581Z,80.26
2018-03-15T09:23:57.381Z,80.15
2018-03-15T09:25:04.124Z,80.03
2018-03-15T09:26:10.866Z,80.01
2018-03-15T09:27:17.600Z,80.03
2018-03-15T09:28:24.410Z,79.99
2018-03-15T09:29:31.119Z,79.86
2018-03-15T09:30:37.900Z,79.79
2018-03-15T09:31:44.643Z,79.74
2018-03-15T09:32:51.528Z,79.68
2018-03-15T09:33:58.307Z,79.68
2018-03-15T09:35:05.016Z,79.67
2018-03-15T09:36:11.816Z,79.80
2018-03-15T09:37:18.549Z,79.77
2018-03-15T09:38:25.311Z,79.84
2018-03-15T09:39:32.056Z,79.87
2018-03-15T09:40:38.871Z,79.89
2018-03-15T09:41:45.568Z,79.81
2018-03-15T09:42:52.411Z,79.74
2018-03-15T09:43:59.126Z,79.62
2018-03-15T09:45:05.893Z,79.52
2018-03-15T09:46:12.682Z,79.48
2018-03-15T09:47:19.382Z,79.54
2018-03-15T09:48:26.142Z,79.46
2018-03-15T09:49:38.003Z,79.47
2018-03-15T09:50:44.788Z,79.47
2018-03-15T09:51:51.539Z,79.50
2018-03-15T09:52:53.268Z,79.48
2018-03-15T09:54:00.010Z,79.49
2018-03-15T09:55:06.741Z,79.49
2018-03-15T09:56:13.492Z,79.53
2018-03-15T09:57:20.333Z,79.50
2018-03-15T09:58:27.071Z,79.41
2018-03-15T09:59:33.889Z,79.28
2018-03-15T10:00:40.616Z,79.13
2018-03-15T10:01:47.346Z,79.12
2018-03-15T10:02:54.164Z,79.14
2018-03-15T10:04:00.990Z,79.10
2018-03-15T10:05:08.038Z,78.93
2018-03-15T10:06:14.577Z,78.92
2018-03-15T10:07:21.296Z,78.84
2018-03-15T10:08:28.042Z,78.80
2018-03-15T10:09:34.776Z,78.73
2018-03-15T10:10:41.485Z,78.76
2018-03-15T10:11:48.265Z,78.74
2018-03-15T10:12:55.052Z,78.63
2018-03-15T10:14:01.769Z,78.57
2018-03-15T10:15:08.525Z,78.57
2018-03-15T10:16:15.325Z,78.59
2018-03-15T10:17:22.053Z,78.47
2018-03-15T10:18:28.833Z,78.49
2018-03-15T10:19:35.569Z,78.49
2018-03-15T10:20:42.327Z,78.60
2018-03-15T10:21:49.091Z,78.73
2018-03-15T10:22:55.778Z,78.72
2018-03-15T10:24:02.605Z,78.65
2018-03-15T10:25:13.769Z,78.69
2018-03-15T10:26:16.170Z,78.61
2018-03-15T10:27:23.000Z,78.59
2018-03-15T10:28:29.721Z,78.62
2018-03-15T10:29:36.529Z,78.60
2018-03-15T10:30:43.389Z,78.65
2018-03-15T10:31:50.118Z,78.67
2018-03-15T10:32:57.025Z,78.68
2018-03-15T10:34:03.813Z,78.64
2018-03-15T10:35:10.565Z,78.66
2018-03-15T10:36:17.381Z,78.42
2018-03-15T10:37:24.085Z,78.32
2018-03-15T10:38:30.809Z,78.16
2018-03-15T10:39:37.526Z,78.19
2018-03-15T10:40:44.293Z,78.03
2018-03-15T10:41:51.202Z,77.97
2018-03-15T10:42:57.955Z,77.99
2018-03-15T10:44:04.714Z,77.83
2018-03-15T10:45:11.561Z,77.78
2018-03-15T10:46:18.292Z,77.73
2018-03-15T10:47:25.012Z,77.75
2018-03-15T10:48:31.780Z,77.66
2018-03-15T10:49:38.600Z,77.58
2018-03-15T10:50:45.357Z,77.48
2018-03-15T10:51:52.106Z,77.43
2018-03-15T10:52:58.813Z,77.40
2018-03-15T10:54:05.629Z,77.43
2018-03-15T10:55:12.388Z,77.35
2018-03-15T10:56:19.121Z,77.12
2018-03-15T10:57:25.925Z,77.12
2018-03-15T10:58:32.717Z,77.18
2018-03-15T10:59:39.453Z,77.24
2018-03-15T11:00:46.269Z,77.07
2018-03-15T11:01:53.125Z,76.90
2018-03-15T11:02:59.906Z,76.93
2018-03-15T11:04:06.788Z,76.74
2018-03-15T11:05:13.716Z,76.62
2018-03-15T11:06:20.596Z,76.54
2018-03-15T11:07:27.355Z,76.48
2018-03-15T11:08:34.472Z,76.56
2018-03-15T11:09:41.310Z,76.58
2018-03-15T11:10:48.393Z,76.52
2018-03-15T11:11:55.112Z,76.55
2018-03-15T11:13:01.865Z,76.32
2018-03-15T11:14:08.657Z,76.23
2018-03-15T11:15:15.465Z,76.22
2018-03-15T11:16:22.229Z,76.03
2018-03-15T11:17:28.937Z,76.01
2018-03-15T11:18:35.712Z,75.97
2018-03-15T11:19:42.420Z,75.90
2018-03-15T11:20:49.240Z,75.82
2018-03-15T11:21:56.166Z,75.78
2018-03-15T11:23:02.888Z,75.90
2018-03-15T11:24:09.607Z,75.75
2018-03-15T11:25:16.421Z,75.59
2018-03-15T11:26:23.234Z,75.54
2018-03-15T11:27:29.975Z,75.41
2018-03-15T11:28:36.733Z,75.27
2018-03-15T11:29:43.481Z,75.23
2018-03-15T11:30:50.257Z,75.17
2018-03-15T11:31:56.997Z,75.11
2018-03-15T11:33:03.718Z,74.95
2018-03-15T11:34:10.463Z,74.90
2018-03-15T11:35:17.309Z,74.83
2018-03-15T11:36:24.042Z,74.69
2018-03-15T11:37:30.827Z,74.51
2018-03-15T11:38:37.551Z,74.33
2018-03-15T11:39:44.345Z,74.21
2018-03-15T11:40:51.156Z,74.28
2018-03-15T11:41:59.737Z,74.29
2018-03-15T11:43:05.004Z,74.22
2018-03-15T11:44:11.824Z,74.25
2018-03-15T11:45:18.550Z,74.10
2018-03-15T11:46:25.277Z,74.04
2018-03-15T11:47:32.032Z,73.88
2018-03-15T11:48:38.769Z,73.81
2018-03-15T11:49:45.593Z,73.76
2018-03-15T11:50:52.421Z,73.83
2018-03-15T11:51:59.150Z,73.92
2018-03-15T11:53:06.008Z,73.74
2018-03-15T11:54:12.760Z,73.47
2018-03-15T11:55:19.480Z,73.52
2018-03-15T11:56:26.957Z,73.57
2018-03-15T11:57:33.989Z,73.60
2018-03-15T11:58:40.497Z,73.56
2018-03-15T11:59:47.417Z,73.66
2018-03-15T12:00:54.665Z,73.50
2018-03-15T12:02:00.872Z,73.35
2018-03-15T12:03:07.699Z,73.31
2018-03-15T12:04:14.485Z,73.00
2018-03-15T12:05:21.235Z,72.92
2018-03-15T12:06:28.009Z,72.99
2018-03-15T12:07:34.797Z,73.10
2018-03-15T12:08:41.464Z,73.00
2018-03-15T12:09:48.321Z,72.87
2018-03-15T12:10:55.132Z,72.92
2018-03-15T12:12:01.829Z,72.85
2018-03-15T12:13:08.635Z,72.67
2018-03-15T12:14:15.348Z,72.74
2018-03-15T12:15:22.189Z,72.64
2018-03-15T12:16:28.909Z,72.42
2018-03-15T12:17:35.758Z,72.41
2018-03-15T12:18:42.578Z,72.37
2018-03-15T12:19:49.301Z,72.32
2018-03-15T12:20:56.040Z,72.23
2018-03-15T12:22:02.748Z,72.07
2018-03-15T12:23:09.624Z,71.88
2018-03-15T12:24:16.328Z,71.71
2018-03-15T12:25:23.036Z,71.50
2018-03-15T12:26:29.745Z,71.32
2018-03-15T12:27:36.457Z,71.16
2018-03-15T12:28:43.173Z,70.99
2018-03-15T12:29:49.963Z,70.89
2018-03-15T12:30:56.689Z,70.63
2018-03-15T12:32:03.429Z,70.42
2018-03-15T12:33:10.168Z,70.22
2018-03-15T12:34:16.881Z,70.09
2018-03-15T12:35:23.663Z,69.95
2018-03-15T12:36:30.376Z,70.00
2018-03-15T12:37:37.106Z,70.06
2018-03-15T12:38:43.835Z,69.98
2018-03-15T12:39:50.568Z,69.85
2018-03-15T12:40:57.364Z,69.63
2018-03-15T12:42:04.110Z,69.66
2018-03-15T12:43:10.846Z,69.56
2018-03-15T12:44:17.609Z,69.41
2018-03-15T12:45:24.449Z,69.28
2018-03-15T12:46:31.193Z,69.00
2018-03-15T12:47:38.029Z,69.03
2018-03-15T12:48:44.840Z,69.07
2018-03-15T12:49:51.545Z,68.90
2018-03-15T12:50:58.277Z,68.61
2018-03-15T12:52:05.030Z,68.37
2018-03-15T12:53:11.730Z,68.16
2018-03-15T12:54:18.470Z,67.93
2018-03-15T12:55:25.231Z,67.64
2018-03-15T12:56:31.920Z,67.74
2018-03-15T12:57:38.658Z,67.56
2018-03-15T12:58:45.364Z,67.25
2018-03-15T12:59:52.084Z,67.15
2018-03-15T13:00:58.925Z,67.06
2018-03-15T13:02:05.640Z,67.08
2018-03-15T13:03:12.404Z,66.91
2018-03-15T13:04:19.113Z,66.68
2018-03-15T13:05:25.836Z,66.60
2018-03-15T13:06:32.609Z,66.44
2018-03-15T13:07:39.359Z,66.35
2018-03-15T13:08:46.112Z,66.25
2018-03-15T13:09:52.838Z,66.25
2018-03-15T13:10:59.612Z,66.11
2018-03-15T13:12:06.324Z,66.13
2018-03-15T13:13:13.073Z,66.24
2018-03-15T13:14:19.821Z,66.17
2018-03-15T13:15:26.529Z,66.18
2018-03-15T13:16:33.334Z,66.19
2018-03-15T13:17:40.105Z,66.18
2018-03-15T13:18:46.857Z,66.09
2018-03-15T13:19:53.603Z,66.00
2018-03-15T13:21:00.386Z,65.92
2018-03-15T13:22:07.194Z,65.87
2018-03-15T13:23:13.946Z,65.86
2018-03-15T13:24:20.664Z,65.82
2018-03-15T13:25:27.465Z,65.75
2018-03-15T13:26:34.163Z,65.67
2018-03-15T13:27:40.860Z,65.62
2018-03-15T13:28:47.652Z,65.64
2018-03-15T13:29:54.382Z,65.50
2018-03-15T13:31:01.313Z,65.12
2018-03-15T13:32:08.161Z,65.03
2018-03-15T13:33:15.129Z,65.00
2018-03-15T13:34:21.911Z,64.78
2018-03-15T13:35:28.746Z,64.67
2018-03-15T13:36:35.502Z,64.58
2018-03-15T13:37:42.225Z,64.53
2018-03-15T13:38:48.956Z,64.62
2018-03-15T13:39:55.779Z,64.60
2018-03-15T13:41:02.549Z,64.60
2018-03-15T13:42:09.320Z,64.68
2018-03-15T13:43:16.069Z,64.65
2018-03-15T13:44:22.825Z,64.59
2018-03-15T13:45:29.553Z,64.55
2018-03-15T13:46:36.263Z,64.54
2018-03-15T13:47:42.993Z,64.35
2018-03-15T13:48:49.724Z,64.30
2018-03-15T13:49:56.448Z,64.39
2018-03-15T13:51:03.148Z,64.39
2018-03-15T13:52:09.974Z,64.15
2018-03-15T13:53:16.738Z,64.28
2018-03-15T13:54:23.465Z,64.19
2018-03-15T13:55:30.220Z,64.30
2018-03-15T13:56:38.211Z,64.35
2018-03-15T13:57:43.940Z,64.41
2018-03-15T13:58:50.629Z,64.42
2018-03-15T13:59:57.392Z,64.33
2018-03-15T14:01:04.116Z,64.40
2018-03-15T14:02:10.852Z,64.18
2018-03-15T14:03:17.557Z,64.08
2018-03-15T14:04:24.329Z,63.84
2018-03-15T14:05:31.168Z,63.89
2018-03-15T14:06:37.890Z,64.14
2018-03-15T14:07:44.613Z,64.35
2018-03-15T14:08:51.393Z,64.50
2018-03-15T14:09:58.168Z,64.70
2018-03-15T14:11:04.908Z,64.88
2018-03-15T14:12:11.630Z,65.06
2018-03-15T14:13:18.365Z,65.21
2018-03-15T14:14:25.054Z,65.23
2018-03-15T14:15:31.796Z,65.12
2018-03-15T14:16:38.608Z,65.17
2018-03-15T14:17:45.338Z,65.10
2018-03-15T14:18:52.057Z,65.24
2018-03-15T14:19:58.768Z,65.15